Time;durP1;ratioP1;P1;durP2;ratioP2;P2;SDS_P1;SDS_P2;PMS_P1;PMS_P2;Temp;Humidity;BMP_temperature;BMP_pressure;BME280_temperature;BME280_humidity;BME280_pressure;Samples;Min_cycle;Max_cycle;Signal;HPM_P1;HPM_P2
2023/09/21 00:00:45;;;;;;;2.85;0.43;;;18.70;99.90;;;;;;5096665;28;20024;-88
2023/09/21 00:03:12;;;;;;;0.20;0.20;;;18.70;99.90;;;;;;5095379;28;20390;-88
2023/09/21 00:05:39;;;;;;;0.80;0.30;;;18.30;99.90;;;;;;5091887;28;20069;-88
2023/09/21 00:08:06;;;;;;;0.97;0.30;;;18.30;99.90;;;;;;5092586;28;20119;-89
2023/09/21 00:10:32;;;;;;;1.67;0.60;;;18.30;99.90;;;;;;5090291;28;20086;-89
2023/09/21 00:13:04;;;;;;;0.63;0.30;;;18.30;99.90;;;;;;5082497;28;20032;-88
2023/09/21 00:15:29;;;;;;;0.88;0.40;;;18.30;99.90;;;;;;5096543;28;20289;-87
2023/09/21 00:17:58;;;;;;;0.30;0.30;;;18.30;99.90;;;;;;5089537;28;20029;-87
2023/09/21 00:21:00;;;;;;;0.40;0.30;;;18.30;99.90;;;;;;5091018;28;20024;-91
2023/09/21 00:23:16;;;;;;;0.60;0.30;;;18.30;99.90;;;;;;5090157;28;20036;-87
2023/09/21 00:25:42;;;;;;;0.98;0.43;;;17.90;99.90;;;;;;5091384;28;20021;-87
2023/09/21 00:28:08;;;;;;;1.58;0.60;;;17.90;99.90;;;;;;5124974;27;20487;-88
2023/09/21 00:30:37;;;;;;;4.80;0.55;;;17.90;99.90;;;;;;5128013;27;20035;-87
2023/09/21 00:33:07;;;;;;;1.40;0.50;;;18.00;99.90;;;;;;5112486;28;20383;-88
2023/09/21 00:35:33;;;;;;;0.88;0.43;;;18.00;99.90;;;;;;5102070;28;20035;-87
2023/09/21 00:38:03;;;;;;;0.77;0.47;;;18.10;99.90;;;;;;5091324;28;20483;-88
2023/09/21 00:40:29;;;;;;;0.98;0.57;;;18.00;99.90;;;;;;5091878;28;20486;-86
2023/09/21 00:42:56;;;;;;;0.93;0.40;;;18.10;99.90;;;;;;5091510;28;20107;-87
2023/09/21 00:45:21;;;;;;;2.17;0.75;;;17.90;99.90;;;;;;5090212;28;20384;-87
2023/09/21 00:47:51;;;;;;;0.38;0.35;;;18.10;99.90;;;;;;5090473;28;20028;-87
2023/09/21 00:50:22;;;;;;;1.65;0.60;;;18.20;99.90;;;;;;5091329;28;20024;-87
2023/09/21 00:52:51;;;;;;;1.02;0.50;;;18.20;99.90;;;;;;5080608;28;20032;-87
2023/09/21 00:55:23;;;;;;;4.60;0.65;;;18.20;99.90;;;;;;5070000;28;20023;-87
2023/09/21 00:57:55;;;;;;;1.17;0.60;;;18.30;99.90;;;;;;5071208;28;20035;-87
2023/09/21 01:00:26;;;;;;;3.03;0.60;;;18.30;99.90;;;;;;5069842;28;20025;-87
2023/09/21 01:02:53;;;;;;;3.38;0.55;;;18.40;99.90;;;;;;5071224;28;20063;-87
2023/09/21 01:05:21;;;;;;;1.48;0.57;;;18.40;99.90;;;;;;5071167;28;20543;-88
2023/09/21 01:07:48;;;;;;;2.33;0.63;;;18.40;99.90;;;;;;5071144;28;20028;-88
2023/09/21 01:10:14;;;;;;;2.58;0.47;;;18.30;99.90;;;;;;5083891;28;20028;-87
2023/09/21 01:12:48;;;;;;;2.83;0.47;;;18.40;99.90;;;;;;5090499;28;20051;-88
2023/09/21 01:15:14;;;;;;;1.75;0.52;;;18.00;99.90;;;;;;5089122;28;20071;-87
2023/09/21 01:17:43;;;;;;;2.80;0.60;;;17.60;99.90;;;;;;5091557;28;20040;-87
2023/09/21 01:20:27;;;;;;;5.35;0.65;;;17.50;99.90;;;;;;5092199;28;20021;-87
2023/09/21 01:23:15;;;;;;;14.95;1.02;;;17.20;99.90;;;;;;5089827;28;20032;-88
2023/09/21 01:25:45;;;;;;;2.05;0.70;;;16.90;99.90;;;;;;5089554;28;20024;-88
2023/09/21 01:28:20;;;;;;;11.85;1.00;;;16.90;99.90;;;;;;5091279;28;20024;-91
2023/09/21 01:30:51;;;;;;;9.88;0.90;;;16.40;99.90;;;;;;5090615;28;20040;-88
2023/09/21 01:33:17;;;;;;;2.03;0.57;;;16.10;99.90;;;;;;5090578;28;20510;-89
2023/09/21 01:35:43;;;;;;;2.20;0.28;;;16.00;99.90;;;;;;5091412;28;20028;-89
2023/09/21 01:38:10;;;;;;;0.65;0.30;;;15.90;99.90;;;;;;5090405;28;20475;-88
2023/09/21 01:40:36;;;;;;;0.45;0.40;;;15.70;99.90;;;;;;5090387;28;20464;-88
2023/09/21 01:43:07;;;;;;;0.80;0.40;;;15.70;99.90;;;;;;5089444;28;20024;-89
2023/09/21 01:45:34;;;;;;;0.95;0.35;;;15.70;99.90;;;;;;5089909;28;20056;-88
2023/09/21 01:48:00;;;;;;;1.55;0.30;;;15.70;99.90;;;;;;5090244;28;20024;-89
2023/09/21 01:50:29;;;;;;;2.70;0.43;;;15.80;99.90;;;;;;5090184;28;20032;-87
2023/09/21 01:52:56;;;;;;;1.00;0.60;;;15.80;99.90;;;;;;5090016;28;20636;-88
2023/09/21 01:55:21;;;;;;;2.80;0.50;;;15.70;99.90;;;;;;5090016;28;20024;-89
2023/09/21 01:57:47;;;;;;;2.33;0.68;;;15.70;99.90;;;;;;5089795;28;20028;-89
2023/09/21 02:00:25;;;;;;;2.20;0.70;;;15.50;99.90;;;;;;5089337;28;20048;-87
2023/09/21 02:02:52;;;;;;;1.48;0.80;;;15.50;99.90;;;;;;5090793;28;20365;-87
2023/09/21 02:05:18;;;;;;;3.28;0.55;;;15.50;99.90;;;;;;5090295;28;20031;-89
2023/09/21 02:07:43;;;;;;;2.30;0.77;;;15.60;99.90;;;;;;5090274;28;20023;-89
2023/09/21 02:10:11;;;;;;;3.20;0.70;;;15.50;99.90;;;;;;5089328;28;20057;-89
2023/09/21 02:12:38;;;;;;;4.32;0.90;;;15.50;99.90;;;;;;5090537;28;20024;-87
2023/09/21 02:15:10;;;;;;;1.83;0.68;;;15.30;99.90;;;;;;5089378;28;20028;-89
2023/09/21 02:17:39;;;;;;;2.45;0.82;;;15.40;99.90;;;;;;5089314;28;20303;-88
2023/09/21 02:20:12;;;;;;;2.28;0.80;;;15.40;99.90;;;;;;5089431;28;20466;-89
2023/09/21 02:22:38;;;;;;;1.52;0.60;;;15.50;99.90;;;;;;5090552;28;20032;-88
2023/09/21 02:25:10;;;;;;;4.47;0.85;;;15.50;99.90;;;;;;5090421;28;20594;-88
2023/09/21 02:27:36;;;;;;;2.28;0.80;;;15.50;99.90;;;;;;5088508;28;20023;-87
2023/09/21 02:30:04;;;;;;;1.67;0.73;;;15.40;99.90;;;;;;5090041;28;20020;-88
2023/09/21 02:32:29;;;;;;;3.53;1.08;;;15.50;99.90;;;;;;5088975;28;20101;-89
2023/09/21 02:34:56;;;;;;;4.65;1.42;;;15.40;99.90;;;;;;5089261;28;20468;-88
2023/09/21 02:37:21;;;;;;;3.20;1.00;;;15.40;99.90;;;;;;5089989;28;20028;-88
2023/09/21 02:39:48;;;;;;;4.25;1.08;;;15.50;99.90;;;;;;5090213;28;20361;-87
2023/09/21 02:42:14;;;;;;;1.80;1.00;;;15.50;99.90;;;;;;5089482;28;20122;-88
2023/09/21 02:44:40;;;;;;;4.60;1.42;;;15.40;99.90;;;;;;5089857;28;20103;-89
2023/09/21 02:47:07;;;;;;;2.13;0.90;;;15.40;99.90;;;;;;5088541;28;20028;-87
2023/09/21 02:49:32;;;;;;;2.13;1.15;;;15.50;99.90;;;;;;5089870;28;20464;-85
2023/09/21 02:51:58;;;;;;;6.40;1.20;;;15.50;99.90;;;;;;5087805;28;20035;-87
2023/09/21 02:54:28;;;;;;;1.70;1.05;;;15.60;99.90;;;;;;5089786;28;20020;-87
2023/09/21 02:56:53;;;;;;;2.08;0.98;;;15.60;99.90;;;;;;5088247;28;20051;-86
2023/09/21 02:59:19;;;;;;;3.60;1.10;;;15.60;99.90;;;;;;5088306;28;20112;-88
2023/09/21 03:01:45;;;;;;;5.28;1.05;;;15.60;99.90;;;;;;5090530;28;20029;-87
2023/09/21 03:04:12;;;;;;;2.05;1.08;;;15.60;99.90;;;;;;5089731;28;20021;-87
2023/09/21 03:06:38;;;;;;;3.00;1.17;;;15.60;99.90;;;;;;5089709;28;20035;-87
2023/09/21 03:09:05;;;;;;;4.55;1.20;;;15.50;99.90;;;;;;5088382;28;20074;-88
2023/09/21 03:11:31;;;;;;;7.43;1.02;;;15.50;99.90;;;;;;5089262;28;20035;-87
2023/09/21 03:13:56;;;;;;;3.78;1.02;;;15.60;99.90;;;;;;5089226;28;20024;-87
2023/09/21 03:16:22;;;;;;;3.53;1.25;;;15.60;99.90;;;;;;5089555;28;20107;-87
2023/09/21 03:18:48;;;;;;;3.42;1.10;;;15.50;99.90;;;;;;5090315;28;20028;-86
2023/09/21 03:21:15;;;;;;;3.28;1.10;;;15.50;99.90;;;;;;5089445;28;20103;-87
2023/09/21 03:23:47;;;;;;;2.58;0.93;;;15.70;99.90;;;;;;5088099;28;20024;-88
2023/09/21 03:26:14;;;;;;;3.45;1.25;;;15.60;99.90;;;;;;5086905;28;20024;-88
2023/09/21 03:28:39;;;;;;;4.88;1.20;;;15.60;99.90;;;;;;5089034;28;20182;-86
2023/09/21 03:31:05;;;;;;;3.45;1.05;;;15.60;99.90;;;;;;5089349;28;20044;-87
2023/09/21 03:33:31;;;;;;;6.40;1.70;;;15.60;99.90;;;;;;5088044;28;20027;-87
2023/09/21 03:35:58;;;;;;;4.10;1.38;;;15.70;99.90;;;;;;5088304;28;20043;-89
2023/09/21 03:38:24;;;;;;;3.80;1.20;;;15.60;99.90;;;;;;5089124;28;20168;-87
2023/09/21 03:40:50;;;;;;;6.85;1.60;;;15.60;99.90;;;;;;5091863;28;20484;-87
2023/09/21 03:43:18;;;;;;;4.40;1.23;;;15.50;99.90;;;;;;5091489;28;20140;-87
2023/09/21 03:45:44;;;;;;;3.97;1.10;;;15.50;99.90;;;;;;5091611;28;20060;-87
2023/09/21 03:48:12;;;;;;;7.18;1.20;;;15.50;99.90;;;;;;5091657;28;20110;-86
2023/09/21 03:50:39;;;;;;;3.70;0.90;;;15.60;99.90;;;;;;5091534;28;20127;-88
2023/09/21 03:53:05;;;;;;;3.10;1.27;;;15.60;99.90;;;;;;5091501;28;20165;-87
2023/09/21 03:55:32;;;;;;;4.72;1.58;;;15.60;99.90;;;;;;5091379;28;20122;-87
2023/09/21 03:57:57;;;;;;;1.80;1.02;;;15.60;99.90;;;;;;5091776;28;20022;-87
2023/09/21 04:00:29;;;;;;;4.75;1.35;;;15.60;99.90;;;;;;5091823;28;20024;-87
2023/09/21 04:02:59;;;;;;;2.20;1.13;;;15.60;99.90;;;;;;5091637;28;20111;-87
2023/09/21 04:05:33;;;;;;;5.13;1.50;;;15.60;99.90;;;;;;5093026;28;20024;-87
2023/09/21 04:07:59;;;;;;;4.00;1.30;;;15.60;99.90;;;;;;5091536;28;20020;-89
2023/09/21 04:10:26;;;;;;;6.20;1.40;;;15.60;99.90;;;;;;5091251;28;20032;-87
2023/09/21 04:12:55;;;;;;;3.78;1.27;;;15.60;99.90;;;;;;5092054;28;20115;-87
2023/09/21 04:15:21;;;;;;;3.42;1.27;;;15.60;99.90;;;;;;5093444;28;20024;-88
2023/09/21 04:17:47;;;;;;;4.05;1.23;;;15.70;99.90;;;;;;5091468;28;20402;-88
2023/09/21 04:20:14;;;;;;;4.43;1.10;;;15.80;99.90;;;;;;5091598;28;20146;-88
2023/09/21 04:22:41;;;;;;;2.70;1.10;;;15.80;99.90;;;;;;5092491;28;20016;-88
2023/09/21 04:25:13;;;;;;;4.07;1.27;;;15.90;99.90;;;;;;5091346;28;20088;-88
2023/09/21 04:27:42;;;;;;;4.00;1.13;;;15.90;99.90;;;;;;5092247;28;20442;-87
2023/09/21 04:30:14;;;;;;;9.98;1.42;;;15.90;99.90;;;;;;5090699;28;20499;-86
2023/09/21 04:32:46;;;;;;;3.67;1.30;;;15.90;99.90;;;;;;5089808;28;20462;-86
2023/09/21 04:35:18;;;;;;;3.47;1.30;;;16.00;99.90;;;;;;5071778;28;20036;-88
2023/09/21 04:37:44;;;;;;;3.08;1.27;;;16.00;99.90;;;;;;5070671;28;20235;-87
2023/09/21 04:40:12;;;;;;;4.53;1.27;;;16.10;99.90;;;;;;5071897;28;20020;-88
2023/09/21 04:42:39;;;;;;;4.80;1.35;;;16.00;99.90;;;;;;5070674;28;20058;-87
2023/09/21 04:45:12;;;;;;;3.33;1.17;;;16.10;99.90;;;;;;5071645;28;20155;-87
2023/09/21 04:47:39;;;;;;;3.00;1.20;;;16.10;99.90;;;;;;5071418;28;20021;-87
2023/09/21 04:50:05;;;;;;;5.10;1.33;;;16.10;99.90;;;;;;5070510;28;20021;-88
2023/09/21 04:52:34;;;;;;;5.60;1.23;;;16.10;99.90;;;;;;5071541;28;20060;-87
2023/09/21 04:55:04;;;;;;;2.63;1.00;;;16.10;99.90;;;;;;5071538;28;20028;-88
2023/09/21 04:57:31;;;;;;;5.65;1.08;;;16.10;99.90;;;;;;5070197;28;20025;-87
2023/09/21 04:59:57;;;;;;;3.03;1.33;;;16.10;99.90;;;;;;5071242;28;20051;-87
2023/09/21 05:02:23;;;;;;;2.15;1.02;;;16.10;99.90;;;;;;5071729;28;20020;-86
2023/09/21 05:04:50;;;;;;;3.88;1.17;;;16.10;99.90;;;;;;5070989;28;20108;-87
2023/09/21 05:07:17;;;;;;;2.13;0.90;;;16.10;99.90;;;;;;5070843;28;20488;-87
2023/09/21 05:09:46;;;;;;;2.15;1.10;;;16.20;99.90;;;;;;5072810;28;20440;-87
2023/09/21 05:12:13;;;;;;;2.38;1.10;;;16.20;99.90;;;;;;5071712;28;20043;-87
2023/09/21 05:14:38;;;;;;;4.47;1.40;;;16.10;99.90;;;;;;5088654;28;20449;-87
2023/09/21 05:17:05;;;;;;;2.30;1.15;;;16.20;99.90;;;;;;5090474;28;20504;-86
2023/09/21 05:19:32;;;;;;;3.40;1.40;;;16.20;99.90;;;;;;5089914;28;20021;-88
2023/09/21 05:21:59;;;;;;;2.78;1.00;;;16.20;99.90;;;;;;5089219;28;20028;-87
2023/09/21 05:24:25;;;;;;;2.45;1.20;;;16.20;99.90;;;;;;5090848;28;20054;-87
2023/09/21 05:26:52;;;;;;;3.10;1.35;;;16.20;99.90;;;;;;5089833;28;20360;-87
2023/09/21 05:29:19;;;;;;;2.22;1.13;;;16.20;99.90;;;;;;5090852;28;20038;-86
2023/09/21 05:31:45;;;;;;;4.13;1.38;;;16.20;99.90;;;;;;5089303;28;20044;-87
2023/09/21 05:34:11;;;;;;;2.53;1.45;;;16.10;99.90;;;;;;5090578;28;20027;-87
2023/09/21 05:36:36;;;;;;;3.97;1.90;;;16.10;99.90;;;;;;5090316;28;20032;-86
2023/09/21 05:39:04;;;;;;;6.15;1.55;;;16.10;99.90;;;;;;5089284;28;20024;-87
2023/09/21 05:41:31;;;;;;;4.22;1.52;;;16.10;99.90;;;;;;5081974;28;20032;-86
2023/09/21 05:43:57;;;;;;;4.80;1.65;;;16.00;99.90;;;;;;5065366;28;20717;-86
2023/09/21 05:46:23;;;;;;;7.05;2.38;;;16.00;99.90;;;;;;5075313;28;20039;-86
2023/09/21 05:48:49;;;;;;;9.48;2.47;;;16.00;99.90;;;;;;5087248;28;20031;-86
2023/09/21 05:51:15;;;;;;;4.75;2.60;;;16.00;99.90;;;;;;5084730;28;20048;-86
2023/09/21 05:53:40;;;;;;;3.17;2.15;;;15.90;99.90;;;;;;5084933;28;20043;-86
2023/09/21 05:56:06;;;;;;;5.53;2.38;;;15.90;99.90;;;;;;5089357;28;20059;-86
2023/09/21 05:58:32;;;;;;;4.35;2.00;;;15.80;99.90;;;;;;5079791;28;20112;-87
2023/09/21 06:00:59;;;;;;;5.38;2.17;;;15.80;99.90;;;;;;5069223;28;20024;-86
2023/09/21 06:03:27;;;;;;;3.00;2.13;;;15.80;99.90;;;;;;5070075;28;20024;-87
2023/09/21 06:05:53;;;;;;;5.30;2.30;;;15.90;99.90;;;;;;5070390;28;20548;-88
2023/09/21 06:08:19;;;;;;;2.70;2.03;;;15.90;99.90;;;;;;5069659;28;20044;-86
2023/09/21 06:10:48;;;;;;;4.88;2.05;;;15.90;99.90;;;;;;5069278;28;20031;-86
2023/09/21 06:13:14;;;;;;;4.82;2.10;;;16.00;99.90;;;;;;5067743;28;20028;-86
2023/09/21 06:15:49;;;;;;;3.90;1.85;;;16.00;99.90;;;;;;5077168;28;20029;-86
2023/09/21 06:18:17;;;;;;;4.55;2.10;;;16.00;99.90;;;;;;5085355;28;20043;-86
2023/09/21 06:20:45;;;;;;;4.20;2.10;;;16.10;99.90;;;;;;5094591;28;20019;-87
2023/09/21 06:23:11;;;;;;;4.30;2.03;;;16.10;99.90;;;;;;5089375;28;20102;-84
2023/09/21 06:25:37;;;;;;;2.53;2.10;;;16.10;99.90;;;;;;5107118;28;20051;-88
2023/09/21 06:28:03;;;;;;;3.60;2.00;;;16.10;99.90;;;;;;5109673;28;20024;-89
2023/09/21 06:30:30;;;;;;;4.45;2.00;;;16.10;99.90;;;;;;5109451;28;20096;-89
2023/09/21 06:32:56;;;;;;;4.15;2.03;;;16.10;99.90;;;;;;5087407;28;20396;-88
2023/09/21 06:35:23;;;;;;;4.78;2.10;;;16.10;99.90;;;;;;5068137;28;20024;-88
2023/09/21 06:37:51;;;;;;;4.60;2.00;;;16.10;99.90;;;;;;5069380;28;20107;-88
2023/09/21 06:40:17;;;;;;;3.90;1.77;;;16.10;99.90;;;;;;5068947;28;20049;-87
2023/09/21 06:42:42;;;;;;;5.00;2.30;;;16.10;99.90;;;;;;5069189;28;20113;-88
2023/09/21 06:45:09;;;;;;;3.03;2.00;;;16.10;99.90;;;;;;5098688;28;20031;-87
2023/09/21 06:47:34;;;;;;;2.25;1.70;;;16.10;99.90;;;;;;5109213;28;20031;-86
2023/09/21 06:50:01;;;;;;;3.30;2.17;;;16.10;99.90;;;;;;5084804;28;20028;-88
2023/09/21 06:52:28;;;;;;;3.65;1.85;;;16.10;99.90;;;;;;5069550;28;20086;-89
2023/09/21 06:54:54;;;;;;;4.30;1.92;;;16.10;99.90;;;;;;5067431;28;20555;-88
2023/09/21 06:57:23;;;;;;;6.95;2.15;;;16.10;99.90;;;;;;5068914;28;20409;-88
2023/09/21 06:59:51;;;;;;;3.63;2.00;;;16.10;99.90;;;;;;5084435;28;20051;-84
2023/09/21 07:02:16;;;;;;;4.53;2.17;;;16.20;99.90;;;;;;5084618;28;20036;-87
2023/09/21 07:04:42;;;;;;;3.92;2.00;;;16.20;99.90;;;;;;5084179;28;20268;-86
2023/09/21 07:07:07;;;;;;;5.80;2.22;;;16.20;99.90;;;;;;5067454;28;20424;-86
2023/09/21 07:09:35;;;;;;;5.05;2.00;;;16.30;99.90;;;;;;5084263;28;20085;-86
2023/09/21 07:12:02;;;;;;;4.78;2.33;;;16.30;99.90;;;;;;5069130;28;20033;-87
2023/09/21 07:14:28;;;;;;;3.22;1.90;;;16.30;99.90;;;;;;5090910;28;20032;-87
2023/09/21 07:16:56;;;;;;;4.78;2.33;;;16.40;99.90;;;;;;5092185;28;20472;-88
2023/09/21 07:19:22;;;;;;;5.43;2.13;;;16.40;99.90;;;;;;5091529;28;20028;-88
2023/09/21 07:21:48;;;;;;;2.70;1.90;;;16.50;99.90;;;;;;5092657;28;20392;-89
2023/09/21 07:24:15;;;;;;;4.28;2.00;;;16.50;99.90;;;;;;5078925;28;20025;-87
2023/09/21 07:26:43;;;;;;;4.03;2.20;;;16.60;99.90;;;;;;5071299;28;20024;-87
2023/09/21 07:29:08;;;;;;;4.28;2.10;;;16.60;99.90;;;;;;5071254;28;20095;-87
2023/09/21 07:31:35;;;;;;;5.72;2.20;;;16.50;99.90;;;;;;5071022;28;20044;-86
2023/09/21 07:34:02;;;;;;;4.78;2.00;;;16.50;99.90;;;;;;5073104;28;20543;-87
2023/09/21 07:36:28;;;;;;;7.35;2.05;;;16.60;99.90;;;;;;5073252;28;20029;-89
2023/09/21 07:38:55;;;;;;;8.18;2.08;;;16.60;99.90;;;;;;5071216;28;20365;-85
2023/09/21 07:41:21;;;;;;;9.65;2.03;;;16.60;99.90;;;;;;5072640;28;20100;-87
2023/09/21 07:43:48;;;;;;;6.22;2.20;;;16.60;99.90;;;;;;5070822;28;20064;-84
2023/09/21 07:46:14;;;;;;;6.97;2.17;;;16.60;99.90;;;;;;5078618;28;20085;-85
2023/09/21 07:48:40;;;;;;;9.38;2.20;;;16.60;99.90;;;;;;5091882;28;20027;-85
2023/09/21 07:51:07;;;;;;;3.70;1.85;;;16.60;99.90;;;;;;5090992;28;20059;-89
2023/09/21 07:53:35;;;;;;;2.80;1.70;;;16.70;99.90;;;;;;5093265;28;20024;-88
2023/09/21 07:56:08;;;;;;;6.00;2.03;;;16.60;99.90;;;;;;5091980;28;20107;-88
2023/09/21 07:58:33;;;;;;;11.63;2.30;;;16.70;99.90;;;;;;5091214;28;20039;-87
2023/09/21 08:01:00;;;;;;;7.07;2.40;;;16.70;99.90;;;;;;5091681;28;20016;-87
2023/09/21 08:03:26;;;;;;;6.55;2.10;;;16.70;99.90;;;;;;5090574;28;20064;-87
2023/09/21 08:05:53;;;;;;;3.78;1.75;;;16.70;99.90;;;;;;5090928;28;20180;-88
2023/09/21 08:08:18;;;;;;;8.50;2.00;;;16.60;99.90;;;;;;5073840;28;20020;-86
2023/09/21 08:10:44;;;;;;;7.35;1.88;;;16.60;99.90;;;;;;5082254;28;20113;-86
2023/09/21 08:13:10;;;;;;;6.43;1.77;;;16.60;99.90;;;;;;5091086;28;20055;-87
2023/09/21 08:15:36;;;;;;;5.45;1.73;;;16.50;99.90;;;;;;5088305;28;20028;-86
2023/09/21 08:18:02;;;;;;;9.77;2.00;;;16.50;99.90;;;;;;5105692;28;20076;-87
2023/09/21 08:20:28;;;;;;;4.22;2.15;;;16.40;99.90;;;;;;5110998;28;20020;-86
2023/09/21 08:22:53;;;;;;;7.60;2.38;;;16.40;99.90;;;;;;5110692;28;20024;-85
2023/09/21 08:25:19;;;;;;;5.30;2.00;;;16.50;99.90;;;;;;5111346;28;20467;-87
2023/09/21 08:27:46;;;;;;;5.80;2.20;;;16.40;99.90;;;;;;5110207;28;20483;-85
2023/09/21 08:30:12;;;;;;;7.75;2.33;;;16.40;99.90;;;;;;5089882;28;20028;-85
2023/09/21 08:32:39;;;;;;;10.52;2.22;;;16.50;99.90;;;;;;5101555;28;20115;-86
2023/09/21 08:35:05;;;;;;;7.28;2.20;;;16.60;99.90;;;;;;5092304;28;20034;-85
2023/09/21 08:37:31;;;;;;;11.65;2.22;;;16.60;99.90;;;;;;5091956;28;20120;-85
2023/09/21 08:39:57;;;;;;;5.00;2.13;;;16.80;99.90;;;;;;5091087;28;20480;-86
2023/09/21 08:42:25;;;;;;;6.90;2.22;;;16.90;99.90;;;;;;5096631;28;20027;-85
2023/09/21 08:44:51;;;;;;;9.45;1.73;;;16.90;99.90;;;;;;5096203;28;20032;-87
2023/09/21 08:47:17;;;;;;;8.40;1.90;;;16.90;99.90;;;;;;5089539;28;20031;-85
2023/09/21 08:49:46;;;;;;;5.95;2.00;;;16.90;99.90;;;;;;5073345;28;20021;-87
2023/09/21 08:52:15;;;;;;;8.15;2.80;;;16.90;99.90;;;;;;5104281;28;20040;-85
2023/09/21 08:54:42;;;;;;;9.45;2.00;;;16.90;99.90;;;;;;5101281;27;20032;-87
2023/09/21 08:57:11;;;;;;;10.25;2.30;;;16.90;99.90;;;;;;5089783;28;20051;-87
2023/09/21 08:59:48;;;;;;;8.68;1.90;;;17.00;99.90;;;;;;5091593;28;20020;-87
2023/09/21 09:02:14;;;;;;;6.90;1.80;;;17.00;99.90;;;;;;5100013;28;20368;-85
2023/09/21 09:04:45;;;;;;;10.27;2.10;;;17.00;99.90;;;;;;5108816;27;20491;-86
2023/09/21 09:07:11;;;;;;;9.75;1.83;;;16.90;99.90;;;;;;5080599;28;20028;-86
2023/09/21 09:09:39;;;;;;;11.52;2.17;;;16.90;99.90;;;;;;5090066;28;20024;-87
2023/09/21 09:12:23;;;;;;;5.55;1.88;;;16.90;99.90;;;;;;5091476;28;20063;-85
2023/09/21 09:14:54;;;;;;;9.38;1.95;;;16.90;99.90;;;;;;5090531;28;20077;-86
2023/09/21 09:17:20;;;;;;;10.95;1.83;;;16.90;99.90;;;;;;5098377;28;20106;-86
2023/09/21 09:19:48;;;;;;;6.88;1.77;;;16.90;99.90;;;;;;5109119;28;20107;-85
2023/09/21 09:22:17;;;;;;;5.25;1.88;;;16.90;99.90;;;;;;5098405;28;20024;-86
2023/09/21 09:24:49;;;;;;;9.15;2.25;;;17.00;99.90;;;;;;5088674;28;20506;-85
2023/09/21 09:27:15;;;;;;;6.15;1.85;;;17.10;99.90;;;;;;5090339;28;20028;-87
2023/09/21 09:29:49;;;;;;;6.10;1.80;;;17.10;99.90;;;;;;5090525;28;20024;-87
2023/09/21 09:32:18;;;;;;;5.90;1.58;;;17.10;99.90;;;;;;5088875;28;20032;-87
2023/09/21 09:34:46;;;;;;;6.10;1.70;;;17.10;99.90;;;;;;5090188;28;20012;-85
2023/09/21 09:37:15;;;;;;;6.80;1.75;;;17.10;99.90;;;;;;5087898;28;20034;-86
2023/09/21 09:39:42;;;;;;;5.72;1.63;;;17.10;99.90;;;;;;5085618;28;20029;-87
2023/09/21 09:42:11;;;;;;;6.32;1.58;;;17.20;99.90;;;;;;5090452;28;20039;-87
2023/09/21 09:44:43;;;;;;;5.63;1.65;;;17.20;99.90;;;;;;5101817;28;20114;-87
2023/09/21 09:47:12;;;;;;;6.55;1.42;;;17.30;99.90;;;;;;5109643;28;20024;-88
2023/09/21 09:49:41;;;;;;;8.82;1.65;;;17.40;99.90;;;;;;5094726;28;20024;-86
2023/09/21 09:52:09;;;;;;;10.15;1.92;;;17.40;99.90;;;;;;5086273;28;20048;-87
2023/09/21 09:54:36;;;;;;;9.60;1.73;;;17.50;99.90;;;;;;5085455;28;20491;-88
2023/09/21 09:57:04;;;;;;;9.15;2.08;;;17.40;99.90;;;;;;5087583;28;20483;-86
2023/09/21 09:59:35;;;;;;;7.50;1.77;;;17.50;99.90;;;;;;5088513;28;20241;-88
2023/09/21 10:02:01;;;;;;;6.40;1.45;;;17.50;99.90;;;;;;5085326;28;20025;-86
2023/09/21 10:04:33;;;;;;;10.38;1.92;;;17.50;99.90;;;;;;5059215;28;20411;-86
2023/09/21 10:06:59;;;;;;;9.98;2.25;;;17.60;99.90;;;;;;5060483;28;20028;-87
2023/09/21 10:09:27;;;;;;;4.45;1.38;;;17.50;99.90;;;;;;5064389;28;20050;-86
2023/09/21 10:11:56;;;;;;;7.18;1.80;;;17.60;99.90;;;;;;5059245;28;20065;-85
2023/09/21 10:14:23;;;;;;;8.57;1.70;;;17.60;99.90;;;;;;5060956;28;20078;-85
2023/09/21 10:16:56;;;;;;;7.18;1.88;;;17.70;99.90;;;;;;5064175;28;20029;-85
2023/09/21 10:19:28;;;;;;;11.43;2.75;;;17.70;99.90;;;;;;5067020;28;20039;-85
2023/09/21 10:21:56;;;;;;;7.43;1.98;;;17.70;99.90;;;;;;5065167;28;20059;-85
2023/09/21 10:24:24;;;;;;;;;;;17.70;99.90;;;;;;5058491;28;20026;-85
2023/09/21 10:26:51;;;;;;;6.63;2.38;;;17.80;99.90;;;;;;5058537;28;19912;-85
2023/09/21 10:29:21;;;;;;;11.10;3.17;;;17.70;99.90;;;;;;5058076;28;20035;-86
2023/09/21 10:32:00;;;;;;;4.75;1.98;;;17.70;99.90;;;;;;5072913;28;21781;-86
2023/09/21 10:34:26;;;;;;;5.68;2.10;;;17.80;99.90;;;;;;5059211;28;20024;-85
2023/09/21 10:37:01;;;;;;;6.18;1.77;;;17.80;99.90;;;;;;5062190;28;20515;-86
2023/09/21 10:39:30;;;;;;;8.88;1.90;;;18.00;99.90;;;;;;5059411;28;20032;-86
2023/09/21 10:42:20;;;;;;;4.03;1.77;;;18.00;99.90;;;;;;5061336;28;20510;-86
2023/09/21 10:44:56;;;;;;;8.63;2.30;;;18.10;99.90;;;;;;5050561;28;20052;-86
2023/09/21 10:47:37;;;;;;;9.45;1.70;;;18.10;99.90;;;;;;5058803;28;20027;-85
2023/09/21 10:50:10;;;;;;;4.43;1.58;;;18.20;99.90;;;;;;5057746;28;20025;-86
2023/09/21 10:52:41;;;;;;;11.13;2.20;;;18.20;99.90;;;;;;5060078;28;20047;-85
2023/09/21 10:55:08;;;;;;;8.93;1.90;;;18.30;99.90;;;;;;5062577;28;20737;-85
2023/09/21 10:57:33;;;;;;;4.53;1.75;;;18.20;99.90;;;;;;5059179;28;20033;-85
2023/09/21 10:59:59;;;;;;;7.15;2.15;;;18.30;99.90;;;;;;5062048;28;20381;-86
2023/09/21 11:02:26;;;;;;;12.80;2.05;;;18.50;99.90;;;;;;5061648;28;20019;-86
2023/09/21 11:04:52;;;;;;;11.65;1.98;;;18.50;99.90;;;;;;5060247;28;20052;-86
2023/09/21 11:07:21;;;;;;;5.03;2.10;;;18.60;99.90;;;;;;5061912;28;20116;-86
2023/09/21 11:09:47;;;;;;;8.93;2.13;;;18.70;99.90;;;;;;5059336;28;20032;-88
2023/09/21 11:12:14;;;;;;;9.52;2.10;;;18.80;99.90;;;;;;5059944;28;20040;-87
2023/09/21 11:14:41;;;;;;;5.38;1.85;;;18.80;99.90;;;;;;5059515;28;20161;-87
2023/09/21 11:17:11;;;;;;;6.07;2.00;;;18.90;99.90;;;;;;5060524;28;20564;-88
2023/09/21 11:19:41;;;;;;;6.45;1.95;;;18.80;99.90;;;;;;5059147;28;20040;-88
2023/09/21 11:22:07;;;;;;;6.70;1.83;;;18.90;99.90;;;;;;5060465;28;20050;-86
2023/09/21 11:24:36;;;;;;;9.95;2.15;;;19.00;99.90;;;;;;5059012;28;20039;-89
2023/09/21 11:27:11;;;;;;;7.15;2.10;;;19.00;99.90;;;;;;5059504;28;20067;-86
2023/09/21 11:29:39;;;;;;;7.50;1.75;;;18.90;99.90;;;;;;5059680;28;20036;-86
2023/09/21 11:32:07;;;;;;;15.02;2.47;;;18.80;99.90;;;;;;5062044;28;20071;-85
2023/09/21 11:34:36;;;;;;;7.65;1.95;;;18.80;99.90;;;;;;5057087;28;20055;-86
2023/09/21 11:37:03;;;;;;;8.35;1.95;;;18.80;99.90;;;;;;5081220;28;20016;-86
2023/09/21 11:39:29;;;;;;;6.80;1.92;;;18.90;99.90;;;;;;5072943;28;20422;-85
2023/09/21 11:41:55;;;;;;;7.38;2.05;;;18.70;99.90;;;;;;5074085;28;20050;-86
2023/09/21 11:44:29;;;;;;;9.93;1.70;;;18.70;99.90;;;;;;5088328;28;20024;-85
2023/09/21 11:46:57;;;;;;;8.10;2.10;;;18.50;99.90;;;;;;5087166;28;20458;-85
2023/09/21 11:49:43;;;;;;;10.23;2.67;;;18.60;99.90;;;;;;5088271;28;20024;-85
2023/09/21 11:52:10;;;;;;;2.58;1.55;;;18.50;99.90;;;;;;5088103;28;20111;-85
2023/09/21 11:54:38;;;;;;;6.50;1.52;;;18.00;99.90;;;;;;5087814;28;20028;-86
2023/09/21 11:57:09;;;;;;;4.47;1.33;;;17.40;99.90;;;;;;5080011;28;20035;-85
2023/09/21 11:59:39;;;;;;;5.05;1.08;;;17.20;99.90;;;;;;5086779;28;20028;-85
2023/09/21 12:02:09;;;;;;;2.15;0.80;;;16.80;99.90;;;;;;5091688;28;20021;-85
2023/09/21 12:04:35;;;;;;;5.38;1.25;;;16.70;99.90;;;;;;5092087;28;20017;-86
2023/09/21 12:07:01;;;;;;;2.80;0.90;;;16.40;99.90;;;;;;5091851;28;20024;-85
2023/09/21 12:09:27;;;;;;;1.77;0.70;;;16.30;99.90;;;;;;5091262;28;20024;-86
2023/09/21 12:11:54;;;;;;;2.33;0.90;;;16.40;99.90;;;;;;5090623;28;20132;-84
2023/09/21 12:14:21;;;;;;;4.20;1.13;;;16.50;99.90;;;;;;5090537;28;20020;-84
2023/09/21 12:16:50;;;;;;;4.03;0.75;;;16.60;99.90;;;;;;5092154;28;20464;-85
2023/09/21 12:19:18;;;;;;;1.13;0.68;;;16.80;99.90;;;;;;5091107;28;20051;-85
2023/09/21 12:21:45;;;;;;;1.42;0.60;;;16.80;99.90;;;;;;5077402;28;20503;-85
2023/09/21 12:24:10;;;;;;;1.60;0.70;;;16.80;99.90;;;;;;5087597;28;20024;-85
2023/09/21 12:26:36;;;;;;;2.25;0.80;;;16.90;99.90;;;;;;5089906;28;20032;-85
2023/09/21 12:29:02;;;;;;;4.32;0.68;;;17.00;99.90;;;;;;5087170;28;20502;-85
2023/09/21 12:31:28;;;;;;;2.00;0.70;;;17.10;99.90;;;;;;5088512;28;20173;-85
2023/09/21 12:33:55;;;;;;;2.03;0.50;;;17.30;99.90;;;;;;5090719;28;20016;-86
2023/09/21 12:36:23;;;;;;;2.10;0.63;;;17.40;99.90;;;;;;5091132;28;20016;-86
2023/09/21 12:38:50;;;;;;;3.90;0.70;;;17.50;99.90;;;;;;5090028;28;20399;-85
2023/09/21 12:41:16;;;;;;;4.55;0.65;;;17.50;99.90;;;;;;5092044;28;20459;-85
2023/09/21 12:43:42;;;;;;;1.00;0.45;;;17.50;99.90;;;;;;5091020;28;20056;-85
2023/09/21 12:46:08;;;;;;;0.93;0.50;;;17.50;99.90;;;;;;5085430;28;20063;-86
2023/09/21 12:48:38;;;;;;;3.22;0.50;;;17.40;99.90;;;;;;5069364;28;20017;-85